This is the latest recevied weather packets stored in our database for station/object K2ATL. If no packets are shown the sender has not sent any weather packets the latest 10 day(s).
| Time | Temp. | Humidity | Pressure | Rain* | Wind** | Luminosity | Snow |
|---|---|---|---|---|---|---|---|
| 1777813644 | 7.22° C | 73% | 1104.7 hPa | 0 mm | - | 344 W/m² | - |
| 1777813341 | 7.22° C | 72% | 1104.3 hPa | 0 mm | - | 327 W/m² | - |
| 1777813039 | 7.78° C | 73% | 1104.2 hPa | 0 mm | - | 304 W/m² | - |
| 1777812737 | 7.78° C | 69% | 1104.6 hPa | 0 mm | - | 285 W/m² | - |
| 1777812433 | 7.22° C | 72% | 1104.5 hPa | 0 mm | - | 264 W/m² | - |
| 1777812131 | 7.78° C | 71% | 1104.6 hPa | 0 mm | - | 248 W/m² | - |
| 1777811829 | 7.78° C | 70% | 1104.6 hPa | 0 mm | - | 228 W/m² | - |
| 1777811527 | 6.11° C | 76% | 1104.6 hPa | 0 mm | - | 202 W/m² | - |
| 1777811222 | 5.56° C | 76% | 1104.5 hPa | 0 mm | - | 192 W/m² | - |
| 1777810920 | 6.11° C | 78% | 1104.5 hPa | 0 mm | - | 73 W/m² | - |
| 1777810616 | 6.11° C | 79% | 1104.5 hPa | 0 mm | - | 38 W/m² | - |
| 1777810313 | 6.11° C | 79% | 1104.5 hPa | 0 mm | - | 37 W/m² | - |
| 1777810008 | 6.11° C | 79% | 1104.6 hPa | 0 mm | - | 36 W/m² | - |
| 1777809707 | 6.11° C | 80% | 1104.6 hPa | 0 mm | - | 34 W/m² | - |
| 1777809404 | 5.56° C | 81% | 1104.3 hPa | 0 mm | - | 33 W/m² | - |
| 1777809102 | 5.56° C | 81% | 1104.5 hPa | 0 mm | - | 32 W/m² | - |
| 1777808799 | 5.56° C | 82% | 1104.3 hPa | 0 mm | - | 30 W/m² | - |
| 1777808496 | 5° C | 82% | 1104.5 hPa | 0 mm | - | 28 W/m² | - |
| 1777808194 | 5.56° C | 82% | 1104.2 hPa | 0 mm | - | 27 W/m² | - |
| 1777807892 | 5.56° C | 83% | 1104.1 hPa | 0 mm | - | 25 W/m² | - |
| 1777807590 | 5° C | 83% | 1104.1 hPa | 0 mm | - | 23 W/m² | - |
| 1777807286 | 5.56° C | 82% | 1104.1 hPa | 0 mm | - | 21 W/m² | - |
| 1777806982 | 5.56° C | 82% | 1103.9 hPa | 0 mm | - | 18 W/m² | - |
| 1777806679 | 5.56° C | 81% | 1103.8 hPa | 0 mm | - | 16 W/m² | - |
| 1777806375 | 6.11° C | 80% | 1103.9 hPa | 0 mm | - | 13 W/m² | - |
* Rain latest hour (hover to see other rain measurements)
** Current wind speed in m/s (hover to see current wind gust speed)